createdAt,value
2022-09-10T00:01:31.552Z,21.94
2022-09-10T00:04:02.743Z,21.88
2022-09-10T00:06:35.380Z,21.84
2022-09-10T00:09:03.725Z,21.81
2022-09-10T00:11:32.446Z,21.32
2022-09-10T00:14:02.346Z,21.78
2022-09-10T00:16:32.331Z,21.32
2022-09-10T00:19:03.192Z,21.56
2022-09-10T00:21:31.560Z,21.63
2022-09-10T00:24:00.116Z,21.78
2022-09-10T00:26:30.341Z,21.74
2022-09-10T00:29:00.434Z,21.78
2022-09-10T00:31:30.147Z,21.35
2022-09-10T00:33:59.728Z,21.37
2022-09-10T00:36:33.018Z,21.53
2022-09-10T00:39:03.658Z,21.64
2022-09-10T00:41:32.617Z,21.53
2022-09-10T00:44:02.487Z,21.67
2022-09-10T00:46:36.791Z,21.69
2022-09-10T00:49:15.379Z,21.70
2022-09-10T00:51:47.081Z,21.68
2022-09-10T00:54:17.880Z,21.29
2022-09-10T00:56:46.852Z,21.51
2022-09-10T00:59:18.953Z,21.48
2022-09-10T01:01:49.368Z,21.52
2022-09-10T01:04:17.743Z,21.50
2022-09-10T01:06:47.776Z,21.51
2022-09-10T01:09:16.339Z,21.50
2022-09-10T01:11:59.014Z,21.63
2022-09-10T01:14:56.080Z,21.28
2022-09-10T01:17:32.815Z,21.38
2022-09-10T01:20:33.666Z,21.16
2022-09-10T01:23:26.347Z,21.35
2022-09-10T01:26:05.069Z,21.33
2022-09-10T01:28:41.118Z,20.83
2022-09-10T01:31:13.003Z,21.32
2022-09-10T01:33:48.448Z,21.35
2022-09-10T01:36:22.223Z,21.35
2022-09-10T01:38:51.787Z,21.29
2022-09-10T01:41:24.180Z,21.37
2022-09-10T01:43:53.959Z,21.36
2022-09-10T01:46:31.128Z,21.34
2022-09-10T01:49:18.938Z,21.32
2022-09-10T01:52:04.568Z,21.30
2022-09-10T01:54:45.913Z,21.19
2022-09-10T01:57:24.548Z,21.09
2022-09-10T02:00:02.812Z,21.21
2022-09-10T02:02:37.236Z,20.52
2022-09-10T02:05:07.634Z,20.06
2022-09-10T02:07:37.939Z,20.01
2022-09-10T02:10:09.524Z,19.96
2022-09-10T02:12:40.150Z,19.96
2022-09-10T02:15:12.010Z,19.81
2022-09-10T02:17:41.536Z,19.69
2022-09-10T02:20:14.864Z,19.86
2022-09-10T02:22:49.992Z,19.16
2022-09-10T02:25:18.550Z,20.22
2022-09-10T02:27:47.016Z,20.15
2022-09-10T02:30:17.089Z,20.58
2022-09-10T02:32:45.406Z,20.35
2022-09-10T02:35:15.673Z,19.89
2022-09-10T02:37:44.344Z,19.77
2022-09-10T02:40:13.989Z,20.09
2022-09-10T02:42:46.881Z,20.37
2022-09-10T02:45:16.945Z,20.60
2022-09-10T02:47:45.177Z,20.44
2022-09-10T02:50:13.511Z,20.48
2022-09-10T02:52:41.820Z,20.55
2022-09-10T02:55:10.494Z,20.53
2022-09-10T02:57:39.625Z,20.57
2022-09-10T03:00:09.989Z,20.63
2022-09-10T03:02:40.484Z,20.57
2022-09-10T03:05:09.443Z,20.39
2022-09-10T03:07:38.796Z,19.68
2022-09-10T03:10:07.611Z,19.60
2022-09-10T03:12:36.449Z,19.97
2022-09-10T03:15:05.071Z,20.08
2022-09-10T03:17:33.477Z,20.18
2022-09-10T03:20:03.979Z,20.04
2022-09-10T03:22:32.228Z,20.21
2022-09-10T03:25:00.658Z,19.36
2022-09-10T03:27:28.879Z,20.21
2022-09-10T03:29:57.277Z,20.33
2022-09-10T03:32:25.565Z,20.36
2022-09-10T03:34:53.924Z,20.58
2022-09-10T03:37:24.248Z,20.12
2022-09-10T03:39:52.633Z,20.54
2022-09-10T03:42:21.110Z,20.54
2022-09-10T03:44:49.448Z,20.61
2022-09-10T03:47:18.485Z,20.68
2022-09-10T03:49:46.708Z,20.78
2022-09-10T03:52:15.064Z,20.41
2022-09-10T03:54:45.674Z,20.55
2022-09-10T03:57:14.073Z,20.40
2022-09-10T03:59:42.370Z,20.57
2022-09-10T04:02:10.625Z,20.67
2022-09-10T04:04:38.940Z,20.71
2022-09-10T04:07:08.201Z,20.62
2022-09-10T04:09:36.459Z,20.45
2022-09-10T04:12:06.634Z,20.24
2022-09-10T04:14:35.237Z,20.42
2022-09-10T04:17:03.543Z,20.57
2022-09-10T04:19:31.818Z,20.58
2022-09-10T04:22:00.096Z,20.64
2022-09-10T04:24:28.371Z,20.09
2022-09-10T04:26:57.826Z,19.60
2022-09-10T04:29:27.524Z,19.95
2022-09-10T04:31:56.495Z,19.69
2022-09-10T04:34:24.757Z,19.52
2022-09-10T04:36:53.766Z,19.03
2022-09-10T04:39:22.065Z,19.09
2022-09-10T04:41:50.304Z,19.55
2022-09-10T04:44:20.243Z,19.44
2022-09-10T04:46:50.036Z,19.64
2022-09-10T04:49:18.342Z,20.19
2022-09-10T04:51:47.024Z,20.55
2022-09-10T04:54:15.676Z,20.27
2022-09-10T04:56:44.843Z,19.89
2022-09-10T04:59:13.168Z,20.33
2022-09-10T05:01:41.474Z,20.39
2022-09-10T05:04:11.111Z,20.38
2022-09-10T05:06:39.431Z,20.15
2022-09-10T05:09:07.759Z,20.07
2022-09-10T05:11:36.856Z,20.62
2022-09-10T05:14:05.277Z,21.16
2022-09-10T05:16:33.696Z,21.44
2022-09-10T05:19:02.073Z,21.67
2022-09-10T05:21:32.252Z,21.68
2022-09-10T05:24:00.931Z,21.55
2022-09-10T05:26:32.264Z,21.81
2022-09-10T05:29:00.772Z,21.90
2022-09-10T05:31:29.435Z,21.50
2022-09-10T05:33:59.593Z,21.92
2022-09-10T05:36:27.957Z,21.89
2022-09-10T05:39:01.294Z,22.27
2022-09-10T05:41:31.233Z,22.12
2022-09-10T05:43:59.497Z,22.51
2022-09-10T05:46:29.838Z,22.13
2022-09-10T05:48:58.465Z,22.76
2022-09-10T05:51:30.001Z,22.80
2022-09-10T05:54:00.359Z,22.51
2022-09-10T05:56:28.572Z,23.06
2022-09-10T05:58:56.795Z,23.26
2022-09-10T06:01:25.090Z,23.69
2022-09-10T06:03:53.396Z,23.41
2022-09-10T06:06:21.914Z,23.51
2022-09-10T06:08:53.477Z,23.80
2022-09-10T06:11:23.416Z,22.97
2022-09-10T06:13:52.334Z,22.54
2022-09-10T06:16:20.643Z,22.77
2022-09-10T06:18:48.982Z,23.38
2022-09-10T06:21:18.950Z,23.05
2022-09-10T06:23:47.542Z,23.22
2022-09-10T06:26:18.652Z,23.49
2022-09-10T06:28:48.760Z,23.89
2022-09-10T06:31:19.786Z,24.41
2022-09-10T06:33:49.100Z,24.49
2022-09-10T06:36:17.453Z,24.55
2022-09-10T06:38:46.233Z,24.47
2022-09-10T06:41:16.223Z,23.76
2022-09-10T06:43:45.079Z,24.20
2022-09-10T06:46:44.166Z,24.23
2022-09-10T06:49:06.233Z,24.43
2022-09-10T06:51:34.579Z,24.21
2022-09-10T06:54:03.143Z,24.26
2022-09-10T06:56:31.489Z,24.10
2022-09-10T06:59:02.340Z,23.18
2022-09-10T07:01:33.140Z,23.52
2022-09-10T07:04:02.855Z,23.20
2022-09-10T07:06:34.875Z,23.90
2022-09-10T07:09:03.664Z,24.13
2022-09-10T07:11:32.295Z,23.81
2022-09-10T07:14:01.580Z,23.99
2022-09-10T07:16:31.763Z,24.27
2022-09-10T07:19:01.404Z,24.30
2022-09-10T07:21:30.380Z,24.59
2022-09-10T07:24:01.397Z,24.62
2022-09-10T07:26:30.299Z,24.51
2022-09-10T07:28:59.689Z,24.75
2022-09-10T07:31:30.057Z,25.01
2022-09-10T07:34:00.779Z,24.93
2022-09-10T07:36:30.108Z,24.71
2022-09-10T07:39:01.880Z,24.79
2022-09-10T07:41:31.984Z,24.92
2022-09-10T07:44:00.273Z,24.72
2022-09-10T07:46:28.584Z,24.68
2022-09-10T07:48:58.669Z,24.50
2022-09-10T07:51:30.367Z,25.35
2022-09-10T07:54:00.467Z,27.04
2022-09-10T07:56:32.009Z,27.95
2022-09-10T07:59:02.810Z,28.59
2022-09-10T08:01:31.933Z,29.57
2022-09-10T08:04:00.551Z,29.61
2022-09-10T08:06:32.308Z,30.10
2022-09-10T08:09:01.344Z,30.12
2022-09-10T08:11:29.680Z,30.47
2022-09-10T08:13:58.066Z,30.51
2022-09-10T08:16:27.057Z,29.03
2022-09-10T08:18:57.321Z,29.51
2022-09-10T08:21:26.126Z,29.76
2022-09-10T08:23:56.375Z,30.36
2022-09-10T08:26:25.924Z,31.17
2022-09-10T08:28:55.963Z,31.48
2022-09-10T08:31:26.463Z,31.83
2022-09-10T08:33:56.933Z,31.74
2022-09-10T08:36:25.798Z,31.91
2022-09-10T08:39:00.694Z,32.20
2022-09-10T08:41:39.272Z,32.82
2022-09-10T08:44:16.277Z,33.56
2022-09-10T08:46:49.361Z,33.56
2022-09-10T08:49:27.521Z,32.68
2022-09-10T08:52:02.196Z,33.29
2022-09-10T08:54:39.240Z,33.64
2022-09-10T08:57:15.639Z,32.70
2022-09-10T08:59:46.610Z,32.34
2022-09-10T09:02:44.674Z,32.50
2022-09-10T09:05:15.964Z,32.95
2022-09-10T09:07:44.553Z,34.04
2022-09-10T09:10:40.172Z,33.16
2022-09-10T09:13:43.257Z,32.90
2022-09-10T09:16:25.143Z,33.74
2022-09-10T09:19:06.360Z,34.72
2022-09-10T09:21:44.721Z,34.77
2022-09-10T09:24:24.069Z,33.80
2022-09-10T09:26:56.947Z,34.63
2022-09-10T09:29:31.019Z,35.11
2022-09-10T09:32:00.979Z,35.70
2022-09-10T09:34:35.144Z,35.81
2022-09-10T09:37:05.909Z,35.77
2022-09-10T09:39:40.224Z,35.86
2022-09-10T09:42:20.455Z,35.82
2022-09-10T09:44:56.881Z,35.66
2022-09-10T09:47:25.474Z,36.86
2022-09-10T09:49:54.492Z,35.94
2022-09-10T09:52:24.908Z,35.90
2022-09-10T09:55:13.872Z,35.84
2022-09-10T09:57:44.882Z,36.34
2022-09-10T10:00:36.608Z,36.55
2022-09-10T10:03:14.263Z,35.89
2022-09-10T10:05:42.866Z,36.00
2022-09-10T10:08:30.228Z,36.72
2022-09-10T10:10:58.865Z,36.28
2022-09-10T10:13:37.388Z,36.22
2022-09-10T10:16:17.458Z,36.94
2022-09-10T10:18:46.725Z,35.55
2022-09-10T10:21:18.279Z,35.44
2022-09-10T10:23:47.015Z,36.39
2022-09-10T10:26:34.131Z,36.42
2022-09-10T10:29:07.005Z,37.09
2022-09-10T10:31:40.512Z,37.95
2022-09-10T10:34:30.099Z,37.30
2022-09-10T10:37:08.923Z,38.01
2022-09-10T10:39:56.073Z,38.12
2022-09-10T10:42:29.153Z,39.93
2022-09-10T10:45:12.844Z,36.71
2022-09-10T10:47:49.840Z,37.40
2022-09-10T10:50:32.638Z,36.57
2022-09-10T10:53:22.899Z,36.59
2022-09-10T10:55:58.631Z,36.12
2022-09-10T10:58:54.275Z,35.82
2022-09-10T11:01:26.169Z,37.29
2022-09-10T11:04:03.159Z,36.64
2022-09-10T11:06:39.042Z,36.56
2022-09-10T11:09:13.716Z,37.00
2022-09-10T11:11:53.510Z,37.11
2022-09-10T11:14:28.387Z,38.38
2022-09-10T11:17:02.677Z,38.93
2022-09-10T11:19:38.457Z,38.35
2022-09-10T11:22:14.789Z,38.79
2022-09-10T11:24:50.336Z,38.31
2022-09-10T11:27:23.839Z,36.79
2022-09-10T11:29:58.762Z,36.71
2022-09-10T11:32:34.823Z,36.57
2022-09-10T11:35:12.636Z,36.49
2022-09-10T11:37:51.150Z,35.67
2022-09-10T11:40:26.253Z,36.20
2022-09-10T11:42:57.993Z,36.43
2022-09-10T11:45:36.385Z,36.20
2022-09-10T11:48:17.486Z,36.62
2022-09-10T11:50:52.033Z,36.42
2022-09-10T11:53:23.363Z,37.41
2022-09-10T11:56:16.801Z,37.68
2022-09-10T11:58:55.663Z,37.72
2022-09-10T12:01:35.577Z,36.51
2022-09-10T12:04:26.128Z,36.42
2022-09-10T12:07:05.884Z,36.18
2022-09-10T12:09:42.358Z,36.04
2022-09-10T12:12:19.419Z,35.83
2022-09-10T12:14:47.816Z,35.65
2022-09-10T12:17:18.912Z,35.04
2022-09-10T12:19:52.734Z,35.30
2022-09-10T12:22:25.804Z,35.18
2022-09-10T12:24:56.709Z,36.14
2022-09-10T12:27:45.700Z,36.09
2022-09-10T12:31:00.202Z,36.16
2022-09-10T12:34:07.937Z,35.39
2022-09-10T12:37:19.985Z,36.08
2022-09-10T12:39:50.600Z,35.34
2022-09-10T12:42:34.701Z,35.89
2022-09-10T12:45:02.998Z,36.14
2022-09-10T12:47:50.503Z,36.85
2022-09-10T12:50:30.391Z,36.53
2022-09-10T12:53:26.653Z,36.66
2022-09-10T12:56:03.460Z,36.97
2022-09-10T12:58:47.563Z,37.37
2022-09-10T13:01:25.794Z,36.14
2022-09-10T13:03:57.975Z,33.50
2022-09-10T13:06:38.374Z,34.75
2022-09-10T13:09:20.139Z,36.15
2022-09-10T13:11:52.707Z,36.25
2022-09-10T13:14:26.054Z,35.58
2022-09-10T13:16:55.544Z,36.11
2022-09-10T13:19:50.195Z,36.23
2022-09-10T13:22:57.379Z,34.18
2022-09-10T13:25:32.770Z,35.44
2022-09-10T13:28:02.740Z,34.78
2022-09-10T13:30:32.219Z,34.71
2022-09-10T13:33:02.333Z,34.57
2022-09-10T13:35:56.483Z,34.24
2022-09-10T13:39:08.704Z,34.53
2022-09-10T13:42:08.223Z,33.44
2022-09-10T13:45:01.190Z,33.63
2022-09-10T13:47:36.869Z,33.35
2022-09-10T13:50:14.373Z,33.58
2022-09-10T13:52:46.431Z,34.01
2022-09-10T13:55:23.470Z,34.39
2022-09-10T13:57:55.986Z,34.84
2022-09-10T14:00:28.211Z,33.16
2022-09-10T14:02:58.730Z,33.17
2022-09-10T14:05:34.007Z,32.15
2022-09-10T14:08:07.607Z,32.60
2022-09-10T14:10:49.604Z,32.85
2022-09-10T14:13:23.733Z,32.71
2022-09-10T14:15:55.200Z,32.44
2022-09-10T14:18:29.151Z,32.82
2022-09-10T14:20:57.718Z,32.92
2022-09-10T14:23:26.236Z,33.29
2022-09-10T14:26:11.350Z,33.14
2022-09-10T14:28:50.886Z,33.10
2022-09-10T14:31:39.178Z,32.64
2022-09-10T14:34:32.164Z,32.64
2022-09-10T14:37:01.842Z,33.15
2022-09-10T14:39:30.407Z,33.01
2022-09-10T14:42:23.586Z,32.26
2022-09-10T14:44:51.908Z,32.14
2022-09-10T14:47:30.556Z,31.56
2022-09-10T14:50:27.736Z,31.66
2022-09-10T14:52:56.265Z,31.39
2022-09-10T14:55:26.094Z,31.26
2022-09-10T14:57:55.601Z,31.01
2022-09-10T15:00:26.097Z,31.05
2022-09-10T15:02:57.469Z,30.83
2022-09-10T15:05:26.023Z,30.83
2022-09-10T15:07:54.278Z,31.05
2022-09-10T15:10:22.749Z,30.66
2022-09-10T15:12:53.260Z,30.88
2022-09-10T15:15:21.813Z,30.67
2022-09-10T15:17:50.373Z,30.70
2022-09-10T15:20:22.678Z,30.62
2022-09-10T15:22:53.063Z,30.87
2022-09-10T15:25:34.897Z,30.48
2022-09-10T15:28:04.481Z,29.85
2022-09-10T15:30:32.728Z,29.58
2022-09-10T15:33:01.200Z,29.56
2022-09-10T15:35:31.170Z,29.50
2022-09-10T15:38:01.813Z,28.15
2022-09-10T15:40:30.171Z,29.18
2022-09-10T15:42:58.812Z,29.02
2022-09-10T15:45:27.308Z,29.10
2022-09-10T15:47:55.685Z,29.02
2022-09-10T15:50:23.993Z,29.10
2022-09-10T15:52:53.679Z,28.78
2022-09-10T15:55:22.019Z,28.58
2022-09-10T15:57:50.976Z,28.55
2022-09-10T16:00:20.529Z,28.41
2022-09-10T16:02:53.151Z,28.52
2022-09-10T16:05:22.411Z,28.61
2022-09-10T16:07:50.744Z,28.24
2022-09-10T16:10:20.534Z,28.23
2022-09-10T16:12:48.787Z,28.14
2022-09-10T16:15:17.425Z,27.95
2022-09-10T16:17:45.893Z,28.03
2022-09-10T16:20:14.117Z,28.19
2022-09-10T16:22:42.443Z,28.01
2022-09-10T16:25:12.196Z,28.20
2022-09-10T16:27:43.403Z,28.17
2022-09-10T16:30:13.898Z,28.09
2022-09-10T16:32:42.209Z,27.97
2022-09-10T16:35:10.827Z,27.73
2022-09-10T16:37:39.138Z,27.85
2022-09-10T16:40:09.385Z,27.98
2022-09-10T16:42:37.765Z,27.91
2022-09-10T16:45:08.634Z,27.48
2022-09-10T16:47:37.303Z,27.91
2022-09-10T16:50:06.967Z,27.99
2022-09-10T16:52:35.911Z,27.79
2022-09-10T16:55:05.146Z,27.48
2022-09-10T16:57:33.580Z,27.65
2022-09-10T17:00:01.842Z,27.52
2022-09-10T17:02:32.098Z,27.31
2022-09-10T17:05:00.677Z,27.47
2022-09-10T17:07:29.329Z,27.63
2022-09-10T17:10:00.917Z,27.64
2022-09-10T17:12:29.601Z,27.79
2022-09-10T17:14:57.870Z,27.50
2022-09-10T17:17:26.374Z,27.38
2022-09-10T17:19:56.586Z,27.16
2022-09-10T17:22:24.969Z,27.19
2022-09-10T17:24:54.035Z,27.33
2022-09-10T17:27:25.387Z,27.25
2022-09-10T17:29:57.088Z,27.34
2022-09-10T17:32:25.469Z,27.35
2022-09-10T17:34:53.735Z,27.24
2022-09-10T17:37:24.512Z,27.14
2022-09-10T17:39:53.861Z,27.37
2022-09-10T17:42:22.278Z,27.37
2022-09-10T17:44:50.657Z,27.42
2022-09-10T17:47:18.948Z,27.05
2022-09-10T17:49:47.620Z,27.07
2022-09-10T17:52:15.927Z,27.20
2022-09-10T17:54:45.838Z,27.18
2022-09-10T17:57:16.826Z,27.25
2022-09-10T17:59:45.200Z,27.23
2022-09-10T18:02:15.602Z,27.13
2022-09-10T18:04:44.212Z,26.95
2022-09-10T18:07:13.103Z,26.69
2022-09-10T18:09:41.440Z,26.17
2022-09-10T18:12:11.265Z,26.07
2022-09-10T18:14:39.678Z,26.31
2022-09-10T18:17:07.910Z,26.54
2022-09-10T18:19:36.716Z,26.22
2022-09-10T18:22:05.536Z,26.39
2022-09-10T18:24:34.020Z,26.36
2022-09-10T18:27:04.785Z,26.22
2022-09-10T18:29:35.170Z,26.27
2022-09-10T18:32:03.988Z,25.78
2022-09-10T18:34:32.611Z,25.12
2022-09-10T18:37:02.674Z,24.98
2022-09-10T18:39:32.617Z,25.27
2022-09-10T18:42:02.909Z,25.42
2022-09-10T18:44:33.473Z,25.77
2022-09-10T18:47:03.294Z,25.90
2022-09-10T18:49:31.608Z,25.74
2022-09-10T18:51:59.879Z,25.77
2022-09-10T18:54:29.525Z,24.19
2022-09-10T18:56:58.327Z,25.15
2022-09-10T18:59:27.247Z,24.88
2022-09-10T19:01:57.032Z,25.24
2022-09-10T19:04:28.592Z,25.52
2022-09-10T19:06:58.148Z,25.13
2022-09-10T19:09:27.831Z,24.95
2022-09-10T19:11:58.521Z,25.09
2022-09-10T19:14:29.483Z,25.04
2022-09-10T19:16:59.456Z,25.01
2022-09-10T19:19:30.700Z,24.99
2022-09-10T19:22:01.297Z,24.69
2022-09-10T19:24:51.000Z,24.70
2022-09-10T19:27:18.094Z,25.00
2022-09-10T19:29:47.429Z,24.80
2022-09-10T19:32:17.239Z,24.99
2022-09-10T19:34:47.282Z,25.21
2022-09-10T19:37:15.832Z,25.19
2022-09-10T19:39:44.619Z,25.00
2022-09-10T19:42:13.231Z,25.18
2022-09-10T19:44:41.632Z,25.11
2022-09-10T19:47:09.969Z,25.23
2022-09-10T19:49:39.246Z,25.19
2022-09-10T19:52:11.205Z,24.86
2022-09-10T19:54:39.892Z,24.98
2022-09-10T19:57:08.254Z,25.11
2022-09-10T19:59:36.569Z,25.12
2022-09-10T20:02:05.127Z,25.26
2022-09-10T20:04:34.284Z,25.32
2022-09-10T20:07:02.783Z,24.83
2022-09-10T20:09:33.984Z,24.48
2022-09-10T20:12:05.968Z,24.70
2022-09-10T20:14:34.285Z,24.95
2022-09-10T20:17:03.172Z,25.11
2022-09-10T20:19:31.859Z,24.86
2022-09-10T20:22:00.106Z,24.77
2022-09-10T20:24:28.903Z,24.75
2022-09-10T20:26:58.640Z,24.62
2022-09-10T20:29:28.569Z,24.51
2022-09-10T20:31:56.894Z,24.43
2022-09-10T20:34:25.608Z,24.54
2022-09-10T20:36:54.041Z,24.38
2022-09-10T20:39:25.339Z,24.64
2022-09-10T20:41:54.036Z,24.42
2022-09-10T20:44:23.714Z,24.82
2022-09-10T20:46:52.299Z,24.83
2022-09-10T20:49:21.539Z,24.68
2022-09-10T20:51:49.835Z,24.53
2022-09-10T20:54:19.801Z,24.74
2022-09-10T20:56:48.192Z,24.62
2022-09-10T20:59:18.244Z,24.65
2022-09-10T21:01:50.833Z,24.61
2022-09-10T21:04:19.980Z,24.51
2022-09-10T21:06:48.307Z,24.33
2022-09-10T21:09:16.662Z,24.09
2022-09-10T21:11:44.919Z,24.12
2022-09-10T21:14:13.758Z,24.07
2022-09-10T21:16:43.306Z,23.95
2022-09-10T21:19:15.845Z,23.57
2022-09-10T21:21:46.113Z,23.72
2022-09-10T21:24:16.311Z,23.55
2022-09-10T21:26:45.024Z,22.91
2022-09-10T21:29:15.016Z,23.54
2022-09-10T21:31:43.988Z,23.56
2022-09-10T21:34:14.359Z,23.43
2022-09-10T21:36:43.883Z,23.48
2022-09-10T21:39:14.807Z,23.07
2022-09-10T21:41:45.302Z,23.31
2022-09-10T21:44:14.839Z,23.19
2022-09-10T21:46:43.559Z,23.43
2022-09-10T21:49:13.392Z,23.43
2022-09-10T21:51:42.415Z,23.23
2022-09-10T21:54:15.317Z,23.22
2022-09-10T21:56:43.627Z,23.33
2022-09-10T21:59:13.141Z,23.31
2022-09-10T22:01:43.655Z,22.92
2022-09-10T22:04:18.857Z,23.05
2022-09-10T22:06:49.977Z,23.12
2022-09-10T22:09:18.367Z,22.71
2022-09-10T22:11:50.214Z,22.33
2022-09-10T22:14:21.051Z,22.74
2022-09-10T22:16:49.645Z,22.80
2022-09-10T22:19:20.809Z,22.84
2022-09-10T22:21:49.136Z,23.02
2022-09-10T22:24:18.583Z,23.09
2022-09-10T22:26:47.766Z,23.18
2022-09-10T22:29:18.986Z,22.93
2022-09-10T22:31:47.671Z,23.04
2022-09-10T22:34:18.741Z,22.54
2022-09-10T22:36:48.531Z,22.39
2022-09-10T22:39:18.504Z,22.63
2022-09-10T22:41:47.379Z,22.43
2022-09-10T22:44:17.800Z,21.91
2022-09-10T22:46:46.262Z,22.41
2022-09-10T22:49:15.596Z,22.49
2022-09-10T22:51:45.938Z,22.29
2022-09-10T22:54:14.316Z,21.64
2022-09-10T22:56:42.695Z,21.75
2022-09-10T22:59:16.582Z,21.89
2022-09-10T23:01:47.704Z,21.81
2022-09-10T23:04:16.233Z,22.16
2022-09-10T23:06:46.076Z,22.26
2022-09-10T23:09:16.187Z,22.09
2022-09-10T23:11:45.893Z,21.99
2022-09-10T23:14:16.807Z,22.07
2022-09-10T23:16:47.782Z,21.49
2022-09-10T23:19:18.125Z,22.00
2022-09-10T23:21:50.475Z,21.92
2022-09-10T23:24:21.069Z,21.78
2022-09-10T23:26:49.590Z,21.57
2022-09-10T23:29:18.560Z,21.48
2022-09-10T23:31:47.731Z,21.65
2022-09-10T23:34:17.707Z,21.44
2022-09-10T23:36:48.986Z,21.61
2022-09-10T23:39:19.898Z,21.90
2022-09-10T23:41:48.856Z,22.01
2022-09-10T23:44:17.619Z,22.05
2022-09-10T23:46:46.148Z,21.99
2022-09-10T23:49:14.619Z,22.03
2022-09-10T23:51:43.142Z,21.86
2022-09-10T23:54:13.178Z,21.73
2022-09-10T23:56:41.672Z,21.90
2022-09-10T23:59:10.723Z,21.79
